Cactus Peak, Santa Catalina Island Weather observations

Data are for 10 minute period ending at time listed.
 Day   Time   Solar   Ave.   Ave.  Ave.  Vector    Max.   Stn.    Total
  of    of     Rad.   Air    Rel.  Wind   Wind     Wind   Baro.  Precip.
Year   Day            Temp.  Hum.  Speed  Dir.     Gust   Pres.         
2015   (PST)   W/m2    F      %     mph   deg.      mph    mb.     in.  
------------------------------------------------------------------------
  29   17:10   16.0    66   46.4     6    133.0     8.4    999.0   0.00  
  29   17:20    8.0    65   53.7     7    150.2    12.5    999.0   0.00  
  29   17:30    4.0    65   51.3     6    125.3     9.0    999.0   0.00  
  29   17:40    1.0    66   47.7     6    125.3     7.2    999.0   0.00  
  29   17:50    0.0    66   47.8     5    123.6     6.6    999.0   0.00  
  29   18:00    0.0    65   48.2     6    135.0     9.0    999.0   0.00  
  29   18:10    0.0    65   49.1     4    153.9     6.6    999.0   0.00  
  29   18:20    0.0    65   50.2     4    174.1     6.0    999.0   0.00  
  29   18:30    0.0    64   51.2     4    172.5     5.4    999.0   0.00  
  29   18:40    0.0    65   50.1     3    171.1     6.0    999.0   0.00  
  29   18:50    0.0    64   51.5     7    182.4     8.4    999.0   0.00  
  29   19:00    0.0    64   52.5     7    184.8     9.0    999.0   0.00  
  29   19:10    0.0    64   52.8     7    183.7     7.8    999.0   0.00  
  29   19:20    0.0    64   52.4     6    186.7     7.8    999.0   0.00  
  29   19:30    0.0    64   52.7     5    211.4     7.8    999.0   0.00  
  29   19:40    0.0    64   51.6     5    160.2     7.8    999.0   0.00  
  29   19:50    0.0    64   51.1     2    147.8     6.0    999.0   0.00  
  29   20:00    0.0    64   51.0     2     24.9     4.2    999.0   0.00  
  29   20:10    0.0    64   51.7     2     27.1     4.2    999.0   0.00  
  29   20:20    0.0    64   50.0     3     67.7     4.8    999.0   0.00  
  29   20:30    0.0    64   50.1     3     36.6     4.2    999.0   0.00  
  29   20:40    0.0    64   49.8     2     91.3     3.0    999.0   0.00  
  29   20:50    0.0    65   49.8     4    104.9     4.8    999.0   0.00  
  29   21:00    0.0    64   50.2     3     96.4     3.6    999.0   0.00  
  29   21:10    0.0    64   51.0     3     87.7     4.8    999.0   0.00  
  29   21:20    0.0    65   49.5     4     86.2     8.4    999.0   0.00  
  29   21:30    0.0    65   48.1     5     98.5     7.8    999.0   0.00  
  29   21:40    0.0    65   48.4     3     55.6     6.0    999.0   0.00  
  29   21:50    0.0    65   48.5     5    117.7     7.2    999.0   0.00  
  29   22:00    0.0    65   49.5     5    121.9     6.6    999.0   0.00  
  29   22:10    0.0    64   49.8     4    102.0     5.4    999.0   0.00  
  29   22:20    0.0    64   50.1     4    111.1     4.8    999.0   0.00  
  29   22:30    0.0    64   49.9     5    128.5     6.0    999.0   0.00  
  29   22:40    0.0    64   50.6     4    148.3     5.4    999.0   0.00  
  29   22:50    0.0    64   50.9     4    162.9     6.0    999.0   0.00  
  29   23:00    0.0    64   51.0     4    151.3     6.0    999.0   0.00  
  29   23:10    0.0    64   51.5     6    145.4     7.2    999.0   0.00  
  29   23:20    0.0    64   53.1     5    105.1     7.8    999.0   0.00  
  29   23:30    0.0    64   54.8     5    104.1     8.4    999.0   0.00  
  29   23:40    0.0    63   56.4     5    125.6     6.6    999.0   0.00  
  29   23:50    0.0    63   56.5     4    118.3     6.0    999.0   0.00  
  30    0:00    0.0    63   54.5     5    124.8     9.6    999.0   0.00  
  30    0:10    0.0    63   54.4     4    128.7     7.2    999.0   0.00  
  30    0:20    0.0    64   52.8     5     80.1     9.0    999.0   0.00  
  30    0:30    0.0    65   50.6     5     46.1     8.4    999.0   0.00  
  30    0:40    0.0    63   55.4     6      0.7     9.0    999.0   0.00  
  30    0:50    0.0    61   60.8     6    331.0     9.6    999.0   0.00  
  30    1:00    0.0    60   65.3     8    357.6    10.8    999.0   0.00  
  30    1:10    0.0    60   64.4     9      9.7    12.5    999.0   0.00  
  30    1:20    0.0    60   65.7    10      1.6    12.5    999.0   0.00  
  30    1:30    0.0    60   67.2     8    353.0    10.2    999.0   0.00  
  30    1:40    0.0    60   67.7    10    346.3    12.5    999.0   0.00  
  30    1:50    0.0    60   66.0    10    344.8    11.9    999.0   0.00  
  30    2:00    0.0    61   64.6    10    344.3    13.1    999.0   0.00  
  30    2:10    0.0    61   65.2    10    339.0    13.1    999.0   0.00  
  30    2:20    0.0    60   71.4    10    339.4    13.1    999.0   0.00  
  30    2:30    0.0    59   74.9    11    341.3    13.7    999.0   0.00  
  30    2:40    0.0    59   75.2    11    347.8    13.1    999.0   0.00  
  30    2:50    0.0    59   75.6    11    344.6    12.5    999.0   0.00  
  30    3:00    0.0    59   72.6    11    344.0    13.7    999.0   0.00  
  30    3:10    0.0    60   67.0    12    353.2    15.5    999.0   0.00  
  30    3:20    0.0    61   63.6    11      1.6    14.3    999.0   0.00  
  30    3:30    0.0    62   60.6     9      1.7    14.3    999.0   0.00  
  30    3:40    0.0    62   59.2     8    350.7    11.3    999.0   0.00  
  30    3:50    0.0    62   58.8    10    353.7    13.7    999.0   0.00  
  30    4:00    0.0    62   58.7    10      0.5    14.9    999.0   0.00  
  30    4:10    0.0    62   58.9     9      3.4    11.9    999.0   0.00  
  30    4:20    0.0    61   58.8    10    354.7    14.3    999.0   0.00  
  30    4:30    0.0    61   58.5     8    352.3    11.3    999.0   0.00  
  30    4:40    0.0    61   58.6     8    344.8    11.3    999.0   0.00  
  30    4:50    0.0    61   58.7     8    339.5     9.6    999.0   0.00  
  30    5:00    0.0    61   59.0     7    341.8     8.4    999.0   0.00  
  30    5:10    0.0    61   59.1     7    340.1     8.4    999.0   0.00  
  30    5:20    0.0    61   59.0     8    343.4     9.0    999.0   0.00  
  30    5:30    0.0    61   58.4     8    338.9     9.6    999.0   0.00  
  30    5:40    0.0    61   57.9     8    338.4    10.2    999.0   0.00  
  30    5:50    0.0    61   57.7     9    337.5    11.3    999.0   0.00  
  30    6:00    0.0    61   58.0     7    333.2    10.2    999.0   0.00  
  30    6:10    0.0    61   58.0     7    327.5     9.0    999.0   0.00  
  30    6:20    0.0    61   58.5     6    325.8     8.4    999.0   0.00  
  30    6:30    0.0    61   59.2     5    323.0     6.6    999.0   0.00  
  30    6:40    0.0    61   59.8     5    307.5     7.2    999.0   0.00  
  30    6:50    0.0    61   60.5     5    287.9     7.2    999.0   0.00  
  30    7:00    2.0    61   60.5     4    305.5     6.0    999.0   0.00  
  30    7:10    3.0    61   61.7     5    343.4     6.6    999.0   0.00  
  30    7:20    8.0    60   63.1     6    333.6     7.2    999.0   0.00  
  30    7:30   19.0    60   64.3     7    335.5     7.8    999.0   0.00  
  30    7:40   31.0    60   65.2     7    334.9     8.4    999.0   0.00  
  30    7:50   33.0    61   64.5     8    332.6     9.0    999.0   0.00  
  30    8:00   43.0    60   65.4     7    322.1     9.0    999.0   0.00  
  30    8:10   54.0    61   66.1     8    333.1    11.3    999.0   0.00  
  30    8:20   62.0    60   67.8     8    345.0     9.6    999.0   0.00  
  30    8:30   99.0    60   69.0     8    331.0    10.2    999.0   0.00  
  30    8:40  134.0    61   68.7     8    330.5    10.8    999.0   0.00  
  30    8:50  170.0    61   69.4     7    335.1    10.2    999.0   0.00  
  30    9:00  244.0    62   70.4     8    338.2    10.8    999.0   0.00  
  30    9:10  216.0    62   72.9    10    340.8    15.5    999.0   0.00  
  30    9:20  191.0    61   72.2    11    339.1    13.7    999.0   0.00  
  30    9:30  161.0    61   71.7    10    340.1    13.1    999.0   0.00  
  30    9:40  158.0    61   72.8    10    339.8    12.5    999.0   0.00  
  30    9:50  157.0    61   72.3    10    341.9    12.5    999.0   0.00  
  30   10:00  181.0    61   71.7     8    343.5    12.5    999.0   0.00  
  30   10:10  224.0    62   72.7     8    342.3    10.2    999.0   0.00  
  30   10:20  298.0    62   73.4     9    338.5    11.9    999.0   0.00  
  30   10:30  462.0    62   74.6     8    346.3    10.8    999.0   0.00  
  30   10:40  485.0    63   74.2     8    342.8    10.2    999.0   0.00  
  30   10:50  324.0    64   74.5     7    344.4     9.6    999.0   0.00  
  30   11:00  280.0    63   75.1     6    337.0     9.0    999.0   0.00  
  30   11:10  274.0    63   76.0     7    325.6     9.6    999.0   0.00  
  30   11:20  236.0    63   73.6     7    332.8    10.8    999.0   0.00  
  30   11:30  235.0    63   76.2     7    335.8    10.8    999.0   0.00  
  30   11:40  308.0    63   75.9     8    348.4    10.2    999.0   0.00  
  30   11:50  296.0    63   74.7     7    343.9    10.8    999.0   0.00  
  30   12:00  344.0    63   74.3     6    326.7     8.4    999.0   0.00  
  30   12:10  311.0    64   71.4     4    341.2     7.2    999.0   0.00  
  30   12:20  319.0    65   68.2     4    349.0     5.4    999.0   0.00  
  30   12:30  302.0    65   67.7     4    336.7     5.4    999.0   0.00  
  30   12:40  260.0    66   68.4     2    276.8     5.4    999.0   0.00  
  30   12:50  278.0    65   77.2     5    185.2     7.2    999.0   0.00  
  30   13:00  306.0    64   79.6     6    182.4     9.0    999.0   0.00  
  30   13:10  345.0    64   79.6     4    174.0     6.6    999.0   0.00  
  30   13:20  306.0    65   76.1     3    176.8     5.4    999.0   0.00  
  30   13:30  262.0    66   70.5     2    198.2     4.2    999.0   0.00  
  30   13:40  190.0    66   70.4     2    324.3     6.0    999.0   0.00  
  30   13:50  210.0    65   71.7     4    312.8     7.2    999.0   0.00  
  30   14:00  210.0    65   72.7     4    331.4     7.8    999.0   0.00  
  30   14:10  207.0    64   76.9     6    324.9     8.4    999.0   0.00  
  30   14:20  199.0    63   79.7     6    339.9     7.8    999.0   0.00  
  30   14:30  191.0    62   81.4     4    337.9     6.6    999.0   0.00  
  30   14:40  202.0    62   81.7     5    348.2     7.2    999.0   0.00  
  30   14:50  235.0    62   81.8     5    332.2     6.6    999.0   0.00  
  30   15:00  271.0    62   81.2     4    337.9     7.2    999.0   0.00  
  30   15:10  267.0    62   80.1     5    340.9     6.6    999.0   0.00  
  30   15:20  233.0    62   81.0     5    326.7     7.8    999.0   0.00  
  30   15:30  201.0    62   81.5     4    324.8     6.6    999.0   0.00  
  30   15:40  206.0    62   81.4     4    330.7     6.0    999.0   0.00  
  30   15:50  201.0    62   80.8     3    337.4     4.8    999.0   0.00  
  30   16:00  184.0    62   79.7     4    343.3     7.2    999.0   0.00  
  30   16:10  159.0    62   79.6     4    341.3     6.0    999.0   0.00  
  30   16:20   99.0    61   80.0     4    347.3     6.0    999.0   0.00  
  30   16:30   71.0    60   78.2     4    331.6     5.4    999.0   0.00  
  30   16:40   50.0    60   75.7     5    328.6     7.2    999.0   0.00  
  30   16:50   38.0    60   76.8     7    341.4     9.0    999.0   0.00  
  30   17:00   26.0    59   77.6     7    341.0     9.6    999.0   0.00  

Return to Cactus Peak graphs page.


Western Regional Climate Center,wrcc@dri.edu